sensor_id;sensor_type;location;lat;lon;timestamp;temperature;humidity
42841;DHT22;28491;46.898;7.660;2022-08-14T00:00:22;16.70;35.40
42841;DHT22;28491;46.898;7.660;2022-08-14T00:02:48;16.60;35.60
42841;DHT22;28491;46.898;7.660;2022-08-14T00:05:18;16.50;36.40
42841;DHT22;28491;46.898;7.660;2022-08-14T00:07:44;16.50;37.30
42841;DHT22;28491;46.898;7.660;2022-08-14T00:10:13;16.40;37.60
42841;DHT22;28491;46.898;7.660;2022-08-14T00:12:43;16.40;37.90
42841;DHT22;28491;46.898;7.660;2022-08-14T00:15:26;16.50;37.50
42841;DHT22;28491;46.898;7.660;2022-08-14T00:17:53;16.40;37.60
42841;DHT22;28491;46.898;7.660;2022-08-14T00:20:21;16.30;38.30
42841;DHT22;28491;46.898;7.660;2022-08-14T00:22:47;16.20;39.10
42841;DHT22;28491;46.898;7.660;2022-08-14T00:25:12;16.30;38.90
42841;DHT22;28491;46.898;7.660;2022-08-14T00:27:38;16.10;40.10
42841;DHT22;28491;46.898;7.660;2022-08-14T00:30:09;16.00;40.00
42841;DHT22;28491;46.898;7.660;2022-08-14T00:32:35;16.00;40.80
42841;DHT22;28491;46.898;7.660;2022-08-14T00:35:03;16.00;42.10
42841;DHT22;28491;46.898;7.660;2022-08-14T00:37:29;15.90;42.20
42841;DHT22;28491;46.898;7.660;2022-08-14T00:39:55;15.90;42.70
42841;DHT22;28491;46.898;7.660;2022-08-14T00:42:21;15.80;43.30
42841;DHT22;28491;46.898;7.660;2022-08-14T00:44:48;15.70;43.20
42841;DHT22;28491;46.898;7.660;2022-08-14T00:47:14;15.70;44.80
42841;DHT22;28491;46.898;7.660;2022-08-14T00:49:41;15.70;45.20
42841;DHT22;28491;46.898;7.660;2022-08-14T00:52:07;15.40;46.60
42841;DHT22;28491;46.898;7.660;2022-08-14T00:54:33;15.40;48.90
42841;DHT22;28491;46.898;7.660;2022-08-14T00:57:02;15.30;49.00
42841;DHT22;28491;46.898;7.660;2022-08-14T00:59:37;15.20;49.60
42841;DHT22;28491;46.898;7.660;2022-08-14T01:02:03;15.30;50.50
42841;DHT22;28491;46.898;7.660;2022-08-14T01:04:32;15.30;50.60
42841;DHT22;28491;46.898;7.660;2022-08-14T01:06:58;15.20;50.90
42841;DHT22;28491;46.898;7.660;2022-08-14T01:09:25;15.30;50.40
42841;DHT22;28491;46.898;7.660;2022-08-14T01:11:52;15.30;49.50
42841;DHT22;28491;46.898;7.660;2022-08-14T01:14:23;15.30;48.90
42841;DHT22;28491;46.898;7.660;2022-08-14T01:16:49;15.40;48.50
42841;DHT22;28491;46.898;7.660;2022-08-14T01:19:14;15.40;49.00
42841;DHT22;28491;46.898;7.660;2022-08-14T01:21:59;15.50;48.70
42841;DHT22;28491;46.898;7.660;2022-08-14T01:24:25;15.50;48.20
42841;DHT22;28491;46.898;7.660;2022-08-14T01:26:51;15.60;47.50
42841;DHT22;28491;46.898;7.660;2022-08-14T01:29:18;15.60;47.10
42841;DHT22;28491;46.898;7.660;2022-08-14T01:31:44;15.60;47.30
42841;DHT22;28491;46.898;7.660;2022-08-14T01:34:11;15.50;47.80
42841;DHT22;28491;46.898;7.660;2022-08-14T01:36:37;15.50;49.20
42841;DHT22;28491;46.898;7.660;2022-08-14T01:39:21;15.50;48.50
42841;DHT22;28491;46.898;7.660;2022-08-14T01:41:48;15.50;48.40
42841;DHT22;28491;46.898;7.660;2022-08-14T01:44:21;15.40;50.10
42841;DHT22;28491;46.898;7.660;2022-08-14T01:46:49;15.40;48.70
42841;DHT22;28491;46.898;7.660;2022-08-14T01:49:18;15.20;50.20
42841;DHT22;28491;46.898;7.660;2022-08-14T01:51:44;15.20;52.50
42841;DHT22;28491;46.898;7.660;2022-08-14T01:54:12;15.10;54.80
42841;DHT22;28491;46.898;7.660;2022-08-14T01:56:38;15.10;52.70
42841;DHT22;28491;46.898;7.660;2022-08-14T01:59:19;15.10;53.50
42841;DHT22;28491;46.898;7.660;2022-08-14T02:01:50;15.10;53.70
42841;DHT22;28491;46.898;7.660;2022-08-14T02:04:20;15.00;54.60
42841;DHT22;28491;46.898;7.660;2022-08-14T02:06:47;15.00;53.20
42841;DHT22;28491;46.898;7.660;2022-08-14T02:09:14;15.10;53.50
42841;DHT22;28491;46.898;7.660;2022-08-14T02:11:40;15.00;52.30
42841;DHT22;28491;46.898;7.660;2022-08-14T02:14:08;15.10;53.10
42841;DHT22;28491;46.898;7.660;2022-08-14T02:16:46;15.00;52.60
42841;DHT22;28491;46.898;7.660;2022-08-14T02:19:19;15.10;52.40
42841;DHT22;28491;46.898;7.660;2022-08-14T02:21:46;14.90;56.00
42841;DHT22;28491;46.898;7.660;2022-08-14T02:24:14;14.90;54.60
42841;DHT22;28491;46.898;7.660;2022-08-14T02:26:41;14.80;58.10
42841;DHT22;28491;46.898;7.660;2022-08-14T02:29:14;14.70;57.60
42841;DHT22;28491;46.898;7.660;2022-08-14T02:31:44;14.70;57.70
42841;DHT22;28491;46.898;7.660;2022-08-14T02:34:18;14.70;57.20
42841;DHT22;28491;46.898;7.660;2022-08-14T02:36:45;14.70;57.00
42841;DHT22;28491;46.898;7.660;2022-08-14T02:39:13;14.60;58.30
42841;DHT22;28491;46.898;7.660;2022-08-14T02:41:40;14.70;57.80
42841;DHT22;28491;46.898;7.660;2022-08-14T02:44:08;14.80;58.40
42841;DHT22;28491;46.898;7.660;2022-08-14T02:46:38;14.80;56.80
42841;DHT22;28491;46.898;7.660;2022-08-14T02:49:05;14.80;55.40
42841;DHT22;28491;46.898;7.660;2022-08-14T02:51:31;14.80;56.00
42841;DHT22;28491;46.898;7.660;2022-08-14T02:53:57;14.80;55.30
42841;DHT22;28491;46.898;7.660;2022-08-14T02:56:23;14.80;55.60
42841;DHT22;28491;46.898;7.660;2022-08-14T02:58:54;14.80;56.30
42841;DHT22;28491;46.898;7.660;2022-08-14T03:01:21;14.90;55.90
42841;DHT22;28491;46.898;7.660;2022-08-14T03:03:48;14.80;54.90
42841;DHT22;28491;46.898;7.660;2022-08-14T03:06:15;14.80;53.50
42841;DHT22;28491;46.898;7.660;2022-08-14T03:08:42;14.80;54.30
42841;DHT22;28491;46.898;7.660;2022-08-14T03:11:09;14.80;55.60
42841;DHT22;28491;46.898;7.660;2022-08-14T03:13:38;14.80;54.90
42841;DHT22;28491;46.898;7.660;2022-08-14T03:16:09;14.80;55.60
42841;DHT22;28491;46.898;7.660;2022-08-14T03:18:37;14.80;55.90
42841;DHT22;28491;46.898;7.660;2022-08-14T03:21:08;14.80;56.40
42841;DHT22;28491;46.898;7.660;2022-08-14T03:23:38;14.70;55.00
42841;DHT22;28491;46.898;7.660;2022-08-14T03:26:05;14.60;56.50
42841;DHT22;28491;46.898;7.660;2022-08-14T03:28:32;14.50;57.20
42841;DHT22;28491;46.898;7.660;2022-08-14T03:30:57;14.50;59.60
42841;DHT22;28491;46.898;7.660;2022-08-14T03:33:23;14.50;59.60
42841;DHT22;28491;46.898;7.660;2022-08-14T03:35:49;14.50;60.20
42841;DHT22;28491;46.898;7.660;2022-08-14T03:38:16;14.40;60.30
42841;DHT22;28491;46.898;7.660;2022-08-14T03:40:43;14.40;59.40
42841;DHT22;28491;46.898;7.660;2022-08-14T03:43:10;14.40;60.20
42841;DHT22;28491;46.898;7.660;2022-08-14T03:45:38;14.30;60.10
42841;DHT22;28491;46.898;7.660;2022-08-14T03:48:14;14.30;60.70
42841;DHT22;28491;46.898;7.660;2022-08-14T03:50:47;14.30;60.10
42841;DHT22;28491;46.898;7.660;2022-08-14T03:53:14;14.40;60.00
42841;DHT22;28491;46.898;7.660;2022-08-14T03:55:41;14.30;60.40
42841;DHT22;28491;46.898;7.660;2022-08-14T03:58:07;14.20;60.40
42841;DHT22;28491;46.898;7.660;2022-08-14T04:00:34;14.20;60.30
42841;DHT22;28491;46.898;7.660;2022-08-14T04:03:00;14.10;60.80
42841;DHT22;28491;46.898;7.660;2022-08-14T04:05:26;14.10;60.80
42841;DHT22;28491;46.898;7.660;2022-08-14T04:07:52;14.00;61.00
42841;DHT22;28491;46.898;7.660;2022-08-14T04:10:17;13.90;61.10
42841;DHT22;28491;46.898;7.660;2022-08-14T04:12:43;14.00;61.00
42841;DHT22;28491;46.898;7.660;2022-08-14T04:15:09;14.00;61.00
42841;DHT22;28491;46.898;7.660;2022-08-14T04:17:36;13.90;61.00
42841;DHT22;28491;46.898;7.660;2022-08-14T04:20:02;13.70;61.20
42841;DHT22;28491;46.898;7.660;2022-08-14T04:22:29;13.60;61.70
42841;DHT22;28491;46.898;7.660;2022-08-14T04:24:56;13.50;62.00
42841;DHT22;28491;46.898;7.660;2022-08-14T04:27:22;13.50;62.40
42841;DHT22;28491;46.898;7.660;2022-08-14T04:29:48;13.50;62.30
42841;DHT22;28491;46.898;7.660;2022-08-14T04:32:13;13.40;62.20
42841;DHT22;28491;46.898;7.660;2022-08-14T04:34:40;13.40;62.40
42841;DHT22;28491;46.898;7.660;2022-08-14T04:37:07;13.40;62.40
42841;DHT22;28491;46.898;7.660;2022-08-14T04:39:52;13.30;62.40
42841;DHT22;28491;46.898;7.660;2022-08-14T04:42:37;13.40;62.60
42841;DHT22;28491;46.898;7.660;2022-08-14T04:45:22;13.40;62.30
42841;DHT22;28491;46.898;7.660;2022-08-14T04:47:50;13.40;62.70
42841;DHT22;28491;46.898;7.660;2022-08-14T04:50:50;13.50;62.90
42841;DHT22;28491;46.898;7.660;2022-08-14T04:53:18;13.40;62.70
42841;DHT22;28491;46.898;7.660;2022-08-14T04:55:46;13.40;62.80
42841;DHT22;28491;46.898;7.660;2022-08-14T04:58:17;13.50;62.50
42841;DHT22;28491;46.898;7.660;2022-08-14T05:00:47;13.60;62.00
42841;DHT22;28491;46.898;7.660;2022-08-14T05:03:27;13.70;62.20
42841;DHT22;28491;46.898;7.660;2022-08-14T05:05:55;13.90;62.00
42841;DHT22;28491;46.898;7.660;2022-08-14T05:08:22;13.90;61.80
42841;DHT22;28491;46.898;7.660;2022-08-14T05:10:53;14.00;61.70
42841;DHT22;28491;46.898;7.660;2022-08-14T05:13:21;14.00;61.30
42841;DHT22;28491;46.898;7.660;2022-08-14T05:15:48;14.10;61.30
42841;DHT22;28491;46.898;7.660;2022-08-14T05:18:16;14.10;61.00
42841;DHT22;28491;46.898;7.660;2022-08-14T05:20:50;14.10;61.20
42841;DHT22;28491;46.898;7.660;2022-08-14T05:23:18;14.00;61.20
42841;DHT22;28491;46.898;7.660;2022-08-14T05:25:45;14.20;60.90
42841;DHT22;28491;46.898;7.660;2022-08-14T05:28:17;14.40;60.90
42841;DHT22;28491;46.898;7.660;2022-08-14T05:30:59;14.60;60.50
42841;DHT22;28491;46.898;7.660;2022-08-14T05:33:28;14.60;60.80
42841;DHT22;28491;46.898;7.660;2022-08-14T05:35:56;14.70;59.90
42841;DHT22;28491;46.898;7.660;2022-08-14T05:38:30;14.80;56.70
42841;DHT22;28491;46.898;7.660;2022-08-14T05:41:02;16.50;45.20
42841;DHT22;28491;46.898;7.660;2022-08-14T05:43:29;17.90;35.00
42841;DHT22;28491;46.898;7.660;2022-08-14T05:45:56;19.00;32.20
42841;DHT22;28491;46.898;7.660;2022-08-14T05:48:23;19.80;29.50
42841;DHT22;28491;46.898;7.660;2022-08-14T05:50:49;20.10;28.10
42841;DHT22;28491;46.898;7.660;2022-08-14T05:53:16;20.30;27.60
42841;DHT22;28491;46.898;7.660;2022-08-14T05:55:41;20.70;27.30
42841;DHT22;28491;46.898;7.660;2022-08-14T05:58:07;20.90;27.70
42841;DHT22;28491;46.898;7.660;2022-08-14T06:00:37;21.00;27.10
42841;DHT22;28491;46.898;7.660;2022-08-14T06:03:06;21.80;27.80
42841;DHT22;28491;46.898;7.660;2022-08-14T06:05:32;21.80;26.40
42841;DHT22;28491;46.898;7.660;2022-08-14T06:07:58;22.10;27.40
42841;DHT22;28491;46.898;7.660;2022-08-14T06:10:26;22.30;25.50
42841;DHT22;28491;46.898;7.660;2022-08-14T06:12:52;22.70;26.00
42841;DHT22;28491;46.898;7.660;2022-08-14T06:15:17;23.40;26.60
42841;DHT22;28491;46.898;7.660;2022-08-14T06:17:51;23.70;25.40
42841;DHT22;28491;46.898;7.660;2022-08-14T06:20:18;24.10;25.50
42841;DHT22;28491;46.898;7.660;2022-08-14T06:22:45;24.30;25.40
42841;DHT22;28491;46.898;7.660;2022-08-14T06:25:13;24.60;25.10
42841;DHT22;28491;46.898;7.660;2022-08-14T06:27:41;24.30;25.20
42841;DHT22;28491;46.898;7.660;2022-08-14T06:30:09;24.10;24.90
42841;DHT22;28491;46.898;7.660;2022-08-14T06:32:35;24.20;26.10
42841;DHT22;28491;46.898;7.660;2022-08-14T06:35:02;24.30;26.60
42841;DHT22;28491;46.898;7.660;2022-08-14T06:37:46;24.40;26.80
42841;DHT22;28491;46.898;7.660;2022-08-14T06:40:15;24.20;26.80
42841;DHT22;28491;46.898;7.660;2022-08-14T06:42:40;24.80;27.90
42841;DHT22;28491;46.898;7.660;2022-08-14T06:45:07;25.00;26.40
42841;DHT22;28491;46.898;7.660;2022-08-14T06:47:34;25.20;26.00
42841;DHT22;28491;46.898;7.660;2022-08-14T06:50:04;25.30;25.80
42841;DHT22;28491;46.898;7.660;2022-08-14T06:52:30;24.80;25.00
42841;DHT22;28491;46.898;7.660;2022-08-14T06:54:56;23.30;27.20
42841;DHT22;28491;46.898;7.660;2022-08-14T06:57:22;22.40;26.70
42841;DHT22;28491;46.898;7.660;2022-08-14T06:59:48;21.90;28.60
42841;DHT22;28491;46.898;7.660;2022-08-14T07:02:13;21.40;28.70
42841;DHT22;28491;46.898;7.660;2022-08-14T07:04:57;20.90;31.20
42841;DHT22;28491;46.898;7.660;2022-08-14T07:07:41;20.70;31.60
42841;DHT22;28491;46.898;7.660;2022-08-14T07:10:08;20.40;32.00
42841;DHT22;28491;46.898;7.660;2022-08-14T07:12:34;20.40;31.90
42841;DHT22;28491;46.898;7.660;2022-08-14T07:15:00;20.30;37.30
42841;DHT22;28491;46.898;7.660;2022-08-14T07:17:26;20.40;34.20
42841;DHT22;28491;46.898;7.660;2022-08-14T07:19:52;20.50;39.50
42841;DHT22;28491;46.898;7.660;2022-08-14T07:22:17;20.60;36.70
42841;DHT22;28491;46.898;7.660;2022-08-14T07:24:43;20.90;33.30
42841;DHT22;28491;46.898;7.660;2022-08-14T07:27:08;21.10;33.40
42841;DHT22;28491;46.898;7.660;2022-08-14T07:29:34;21.30;34.40
42841;DHT22;28491;46.898;7.660;2022-08-14T07:32:00;21.30;31.60
42841;DHT22;28491;46.898;7.660;2022-08-14T07:34:25;21.30;30.10
42841;DHT22;28491;46.898;7.660;2022-08-14T07:36:51;21.00;30.00
42841;DHT22;28491;46.898;7.660;2022-08-14T07:39:17;21.40;29.80
42841;DHT22;28491;46.898;7.660;2022-08-14T07:41:42;21.60;29.10
42841;DHT22;28491;46.898;7.660;2022-08-14T07:44:09;21.60;31.50
42841;DHT22;28491;46.898;7.660;2022-08-14T07:46:35;21.50;31.30
42841;DHT22;28491;46.898;7.660;2022-08-14T07:49:03;21.70;33.00
42841;DHT22;28491;46.898;7.660;2022-08-14T07:51:29;21.90;30.30
42841;DHT22;28491;46.898;7.660;2022-08-14T07:53:56;21.80;32.20
42841;DHT22;28491;46.898;7.660;2022-08-14T07:56:22;22.00;31.30
42841;DHT22;28491;46.898;7.660;2022-08-14T07:58:48;21.90;32.80
42841;DHT22;28491;46.898;7.660;2022-08-14T08:01:15;21.90;33.60
42841;DHT22;28491;46.898;7.660;2022-08-14T08:03:42;22.00;33.00
42841;DHT22;28491;46.898;7.660;2022-08-14T08:06:09;22.10;33.30
42841;DHT22;28491;46.898;7.660;2022-08-14T08:08:35;22.10;35.40
42841;DHT22;28491;46.898;7.660;2022-08-14T08:11:01;22.10;32.40
42841;DHT22;28491;46.898;7.660;2022-08-14T08:13:27;22.10;33.80
42841;DHT22;28491;46.898;7.660;2022-08-14T08:15:55;22.20;32.40
42841;DHT22;28491;46.898;7.660;2022-08-14T08:18:22;22.30;31.90
42841;DHT22;28491;46.898;7.660;2022-08-14T08:20:50;22.40;32.40
42841;DHT22;28491;46.898;7.660;2022-08-14T08:23:18;22.40;32.40
42841;DHT22;28491;46.898;7.660;2022-08-14T08:25:49;22.50;30.90
42841;DHT22;28491;46.898;7.660;2022-08-14T08:28:20;22.50;29.70
42841;DHT22;28491;46.898;7.660;2022-08-14T08:30:48;22.60;29.40
42841;DHT22;28491;46.898;7.660;2022-08-14T08:33:17;22.60;27.90
42841;DHT22;28491;46.898;7.660;2022-08-14T08:35:44;22.70;29.10
42841;DHT22;28491;46.898;7.660;2022-08-14T08:38:11;22.90;29.10
42841;DHT22;28491;46.898;7.660;2022-08-14T08:40:41;22.90;28.70
42841;DHT22;28491;46.898;7.660;2022-08-14T08:43:15;22.90;29.90
42841;DHT22;28491;46.898;7.660;2022-08-14T08:45:42;22.70;26.70
42841;DHT22;28491;46.898;7.660;2022-08-14T08:48:08;22.70;27.00
42841;DHT22;28491;46.898;7.660;2022-08-14T08:50:37;22.90;27.10
42841;DHT22;28491;46.898;7.660;2022-08-14T08:53:06;22.90;26.70
42841;DHT22;28491;46.898;7.660;2022-08-14T08:55:41;22.80;25.90
42841;DHT22;28491;46.898;7.660;2022-08-14T08:58:09;22.90;26.90
42841;DHT22;28491;46.898;7.660;2022-08-14T09:00:37;22.90;25.50
42841;DHT22;28491;46.898;7.660;2022-08-14T09:03:14;23.10;25.40
42841;DHT22;28491;46.898;7.660;2022-08-14T09:05:53;23.10;25.70
42841;DHT22;28491;46.898;7.660;2022-08-14T09:08:27;23.10;27.60
42841;DHT22;28491;46.898;7.660;2022-08-14T09:10:54;23.30;25.60
42841;DHT22;28491;46.898;7.660;2022-08-14T09:13:21;23.30;24.90
42841;DHT22;28491;46.898;7.660;2022-08-14T09:15:49;23.20;26.00
42841;DHT22;28491;46.898;7.660;2022-08-14T09:18:17;23.10;27.30
42841;DHT22;28491;46.898;7.660;2022-08-14T09:20:45;23.00;26.00
42841;DHT22;28491;46.898;7.660;2022-08-14T09:23:12;23.00;25.00
42841;DHT22;28491;46.898;7.660;2022-08-14T09:25:40;22.90;26.30
42841;DHT22;28491;46.898;7.660;2022-08-14T09:28:07;22.90;28.20
42841;DHT22;28491;46.898;7.660;2022-08-14T09:30:36;22.90;28.20
42841;DHT22;28491;46.898;7.660;2022-08-14T09:38:15;22.90;28.10
42841;DHT22;28491;46.898;7.660;2022-08-14T09:43:30;23.10;27.50
42841;DHT22;28491;46.898;7.660;2022-08-14T09:45:57;23.10;27.00
42841;DHT22;28491;46.898;7.660;2022-08-14T09:48:25;23.20;28.10
42841;DHT22;28491;46.898;7.660;2022-08-14T09:50:52;23.40;29.40
42841;DHT22;28491;46.898;7.660;2022-08-14T09:53:40;23.50;29.50
42841;DHT22;28491;46.898;7.660;2022-08-14T09:56:07;23.50;28.20
42841;DHT22;28491;46.898;7.660;2022-08-14T09:58:45;23.40;28.20
42841;DHT22;28491;46.898;7.660;2022-08-14T10:01:13;23.40;28.80
42841;DHT22;28491;46.898;7.660;2022-08-14T10:03:52;23.40;27.90
42841;DHT22;28491;46.898;7.660;2022-08-14T10:06:21;23.40;27.80
42841;DHT22;28491;46.898;7.660;2022-08-14T10:09:10;23.40;28.90
42841;DHT22;28491;46.898;7.660;2022-08-14T10:11:37;23.40;28.70
42841;DHT22;28491;46.898;7.660;2022-08-14T10:16:48;23.30;27.30
42841;DHT22;28491;46.898;7.660;2022-08-14T10:19:16;23.40;28.60
42841;DHT22;28491;46.898;7.660;2022-08-14T10:22:02;23.30;27.40
42841;DHT22;28491;46.898;7.660;2022-08-14T10:24:37;23.30;27.20
42841;DHT22;28491;46.898;7.660;2022-08-14T10:27:19;23.40;28.30
42841;DHT22;28491;46.898;7.660;2022-08-14T10:29:50;23.40;28.50
42841;DHT22;28491;46.898;7.660;2022-08-14T10:32:16;23.40;28.60
42841;DHT22;28491;46.898;7.660;2022-08-14T10:34:41;23.40;28.80
42841;DHT22;28491;46.898;7.660;2022-08-14T10:37:09;23.30;28.50
42841;DHT22;28491;46.898;7.660;2022-08-14T10:39:37;23.30;29.20
42841;DHT22;28491;46.898;7.660;2022-08-14T10:42:09;23.20;29.40
42841;DHT22;28491;46.898;7.660;2022-08-14T10:44:37;23.30;28.00
42841;DHT22;28491;46.898;7.660;2022-08-14T10:47:07;23.30;28.30
42841;DHT22;28491;46.898;7.660;2022-08-14T10:49:37;23.20;28.40
42841;DHT22;28491;46.898;7.660;2022-08-14T10:52:05;23.20;28.70
42841;DHT22;28491;46.898;7.660;2022-08-14T10:54:32;23.20;29.70
42841;DHT22;28491;46.898;7.660;2022-08-14T10:57:17;23.20;29.50
42841;DHT22;28491;46.898;7.660;2022-08-14T11:02:22;23.30;29.20
42841;DHT22;28491;46.898;7.660;2022-08-14T11:05:13;23.40;28.80
42841;DHT22;28491;46.898;7.660;2022-08-14T11:07:41;23.20;30.00
42841;DHT22;28491;46.898;7.660;2022-08-14T11:10:10;23.20;29.10
42841;DHT22;28491;46.898;7.660;2022-08-14T11:12:47;23.30;29.50
42841;DHT22;28491;46.898;7.660;2022-08-14T11:15:18;23.30;29.10
42841;DHT22;28491;46.898;7.660;2022-08-14T11:17:45;23.40;29.90
42841;DHT22;28491;46.898;7.660;2022-08-14T11:20:13;23.40;27.60
42841;DHT22;28491;46.898;7.660;2022-08-14T11:22:40;23.50;29.30
42841;DHT22;28491;46.898;7.660;2022-08-14T11:25:11;23.50;29.80
42841;DHT22;28491;46.898;7.660;2022-08-14T11:27:43;23.60;29.90
42841;DHT22;28491;46.898;7.660;2022-08-14T11:30:15;23.60;29.20
42841;DHT22;28491;46.898;7.660;2022-08-14T11:32:46;23.60;29.00
42841;DHT22;28491;46.898;7.660;2022-08-14T11:35:20;23.60;29.50
42841;DHT22;28491;46.898;7.660;2022-08-14T11:40:19;23.80;29.50
42841;DHT22;28491;46.898;7.660;2022-08-14T11:42:47;23.90;28.80
42841;DHT22;28491;46.898;7.660;2022-08-14T11:45:13;24.00;29.60
42841;DHT22;28491;46.898;7.660;2022-08-14T11:47:39;24.10;30.00
42841;DHT22;28491;46.898;7.660;2022-08-14T11:50:15;24.20;29.60
42841;DHT22;28491;46.898;7.660;2022-08-14T11:52:42;24.20;30.40
42841;DHT22;28491;46.898;7.660;2022-08-14T11:55:10;24.40;29.80
42841;DHT22;28491;46.898;7.660;2022-08-14T11:57:37;24.50;30.90
42841;DHT22;28491;46.898;7.660;2022-08-14T12:00:11;24.60;29.80
42841;DHT22;28491;46.898;7.660;2022-08-14T12:02:52;24.70;30.10
42841;DHT22;28491;46.898;7.660;2022-08-14T12:05:35;24.80;29.10
42841;DHT22;28491;46.898;7.660;2022-08-14T12:08:03;24.80;29.00
42841;DHT22;28491;46.898;7.660;2022-08-14T12:10:32;24.70;29.00
42841;DHT22;28491;46.898;7.660;2022-08-14T12:13:15;24.70;29.90
42841;DHT22;28491;46.898;7.660;2022-08-14T12:15:44;24.50;30.30
42841;DHT22;28491;46.898;7.660;2022-08-14T12:18:11;24.40;29.60
42841;DHT22;28491;46.898;7.660;2022-08-14T12:20:39;24.20;30.10
42841;DHT22;28491;46.898;7.660;2022-08-14T12:23:22;24.20;30.10
42841;DHT22;28491;46.898;7.660;2022-08-14T12:25:49;24.20;31.20
42841;DHT22;28491;46.898;7.660;2022-08-14T12:28:25;24.30;30.40
42841;DHT22;28491;46.898;7.660;2022-08-14T12:30:51;24.20;30.10
42841;DHT22;28491;46.898;7.660;2022-08-14T12:35:51;24.20;31.70
42841;DHT22;28491;46.898;7.660;2022-08-14T12:38:17;24.10;30.50
42841;DHT22;28491;46.898;7.660;2022-08-14T12:40:51;24.00;31.90
42841;DHT22;28491;46.898;7.660;2022-08-14T12:43:18;24.00;30.90
42841;DHT22;28491;46.898;7.660;2022-08-14T12:45:49;23.90;30.00
42841;DHT22;28491;46.898;7.660;2022-08-14T12:48:16;23.80;30.60
42841;DHT22;28491;46.898;7.660;2022-08-14T12:50:43;23.60;30.90
42841;DHT22;28491;46.898;7.660;2022-08-14T12:53:10;23.60;32.00
42841;DHT22;28491;46.898;7.660;2022-08-14T12:55:40;23.50;31.20
42841;DHT22;28491;46.898;7.660;2022-08-14T12:58:07;23.50;31.90
42841;DHT22;28491;46.898;7.660;2022-08-14T13:00:36;23.40;31.50
42841;DHT22;28491;46.898;7.660;2022-08-14T13:03:03;23.40;31.00
42841;DHT22;28491;46.898;7.660;2022-08-14T13:05:32;23.40;31.40
42841;DHT22;28491;46.898;7.660;2022-08-14T13:08:01;23.40;31.50
42841;DHT22;28491;46.898;7.660;2022-08-14T13:10:31;23.40;33.40
42841;DHT22;28491;46.898;7.660;2022-08-14T13:12:57;23.40;33.40
42841;DHT22;28491;46.898;7.660;2022-08-14T13:15:25;23.40;32.90
42841;DHT22;28491;46.898;7.660;2022-08-14T13:17:53;23.30;32.00
42841;DHT22;28491;46.898;7.660;2022-08-14T13:20:23;23.30;33.80
42841;DHT22;28491;46.898;7.660;2022-08-14T13:22:49;23.30;31.90
42841;DHT22;28491;46.898;7.660;2022-08-14T13:25:18;23.40;32.80
42841;DHT22;28491;46.898;7.660;2022-08-14T13:27:46;23.50;31.40
42841;DHT22;28491;46.898;7.660;2022-08-14T13:30:13;23.60;31.60
42841;DHT22;28491;46.898;7.660;2022-08-14T13:32:39;23.80;31.50
42841;DHT22;28491;46.898;7.660;2022-08-14T13:35:09;24.10;32.20
42841;DHT22;28491;46.898;7.660;2022-08-14T13:37:35;24.50;33.20
42841;DHT22;28491;46.898;7.660;2022-08-14T13:40:02;24.90;32.40
42841;DHT22;28491;46.898;7.660;2022-08-14T13:42:29;25.10;30.50
42841;DHT22;28491;46.898;7.660;2022-08-14T13:44:56;25.20;29.80
42841;DHT22;28491;46.898;7.660;2022-08-14T13:47:24;25.10;30.90
42841;DHT22;28491;46.898;7.660;2022-08-14T13:49:55;25.10;30.10
42841;DHT22;28491;46.898;7.660;2022-08-14T13:52:21;25.10;31.40
42841;DHT22;28491;46.898;7.660;2022-08-14T13:54:49;24.90;29.20
42841;DHT22;28491;46.898;7.660;2022-08-14T13:57:18;24.90;30.90
42841;DHT22;28491;46.898;7.660;2022-08-14T13:59:46;24.90;30.60
42841;DHT22;28491;46.898;7.660;2022-08-14T14:02:12;24.80;30.60
42841;DHT22;28491;46.898;7.660;2022-08-14T14:04:40;24.80;30.80
42841;DHT22;28491;46.898;7.660;2022-08-14T14:07:09;24.60;30.70
42841;DHT22;28491;46.898;7.660;2022-08-14T14:09:41;24.40;32.10
42841;DHT22;28491;46.898;7.660;2022-08-14T14:12:07;24.30;31.30
42841;DHT22;28491;46.898;7.660;2022-08-14T14:14:35;24.00;30.70
42841;DHT22;28491;46.898;7.660;2022-08-14T14:17:07;23.90;32.10
42841;DHT22;28491;46.898;7.660;2022-08-14T14:19:33;24.00;33.40
42841;DHT22;28491;46.898;7.660;2022-08-14T14:22:03;24.00;30.30
42841;DHT22;28491;46.898;7.660;2022-08-14T14:24:33;23.90;32.60
42841;DHT22;28491;46.898;7.660;2022-08-14T14:27:00;23.90;32.60
42841;DHT22;28491;46.898;7.660;2022-08-14T14:29:29;23.80;32.40
42841;DHT22;28491;46.898;7.660;2022-08-14T14:32:00;23.70;31.70
42841;DHT22;28491;46.898;7.660;2022-08-14T14:34:27;23.60;32.90
42841;DHT22;28491;46.898;7.660;2022-08-14T14:36:54;23.60;33.40
42841;DHT22;28491;46.898;7.660;2022-08-14T14:39:22;23.50;34.30
42841;DHT22;28491;46.898;7.660;2022-08-14T14:41:51;23.50;35.40
42841;DHT22;28491;46.898;7.660;2022-08-14T14:44:19;23.50;35.20
42841;DHT22;28491;46.898;7.660;2022-08-14T14:46:47;23.50;34.70
42841;DHT22;28491;46.898;7.660;2022-08-14T14:49:14;23.50;32.70
42841;DHT22;28491;46.898;7.660;2022-08-14T14:51:43;23.50;35.10
42841;DHT22;28491;46.898;7.660;2022-08-14T14:54:10;23.60;32.20
42841;DHT22;28491;46.898;7.660;2022-08-14T14:56:40;23.50;32.50
42841;DHT22;28491;46.898;7.660;2022-08-14T14:59:06;23.50;33.50
42841;DHT22;28491;46.898;7.660;2022-08-14T15:01:34;23.60;33.40
42841;DHT22;28491;46.898;7.660;2022-08-14T15:04:00;23.50;32.80
42841;DHT22;28491;46.898;7.660;2022-08-14T15:06:28;23.60;34.20
42841;DHT22;28491;46.898;7.660;2022-08-14T15:08:54;23.70;32.90
42841;DHT22;28491;46.898;7.660;2022-08-14T15:11:20;23.80;33.60
42841;DHT22;28491;46.898;7.660;2022-08-14T15:13:46;23.90;33.00
42841;DHT22;28491;46.898;7.660;2022-08-14T15:16:12;23.80;32.60
42841;DHT22;28491;46.898;7.660;2022-08-14T15:18:38;23.70;31.40
42841;DHT22;28491;46.898;7.660;2022-08-14T15:21:05;23.70;31.30
42841;DHT22;28491;46.898;7.660;2022-08-14T15:23:31;23.80;33.20
42841;DHT22;28491;46.898;7.660;2022-08-14T15:25:57;23.90;33.00
42841;DHT22;28491;46.898;7.660;2022-08-14T15:28:24;23.90;33.40
42841;DHT22;28491;46.898;7.660;2022-08-14T15:30:50;23.80;32.10
42841;DHT22;28491;46.898;7.660;2022-08-14T15:33:16;23.80;31.40
42841;DHT22;28491;46.898;7.660;2022-08-14T15:36:02;23.80;31.80
42841;DHT22;28491;46.898;7.660;2022-08-14T15:38:28;23.90;32.00
42841;DHT22;28491;46.898;7.660;2022-08-14T15:40:56;23.80;31.50
42841;DHT22;28491;46.898;7.660;2022-08-14T15:43:22;23.60;30.20
42841;DHT22;28491;46.898;7.660;2022-08-14T15:45:51;23.50;31.60
42841;DHT22;28491;46.898;7.660;2022-08-14T15:48:16;23.50;32.10
42841;DHT22;28491;46.898;7.660;2022-08-14T15:50:42;23.60;32.40
42841;DHT22;28491;46.898;7.660;2022-08-14T15:53:09;23.60;30.00
42841;DHT22;28491;46.898;7.660;2022-08-14T15:55:34;23.70;32.70
42841;DHT22;28491;46.898;7.660;2022-08-14T15:58:02;23.70;32.70